sensor_id;sensor_type;location;lat;lon;timestamp;temperature;humidity
60313;DHT22;46158;52.850;6.970;2023-06-22T00:01:58;21.10;70.50
60313;DHT22;46158;52.850;6.970;2023-06-22T00:04:24;21.10;70.50
60313;DHT22;46158;52.850;6.970;2023-06-22T00:06:50;21.10;70.50
60313;DHT22;46158;52.850;6.970;2023-06-22T00:09:16;21.10;70.50
60313;DHT22;46158;52.850;6.970;2023-06-22T00:11:42;21.10;70.50
60313;DHT22;46158;52.850;6.970;2023-06-22T00:14:07;21.10;70.50
60313;DHT22;46158;52.850;6.970;2023-06-22T00:16:34;21.10;70.50
60313;DHT22;46158;52.850;6.970;2023-06-22T00:19:00;21.10;70.50
60313;DHT22;46158;52.850;6.970;2023-06-22T00:21:27;21.10;70.50
60313;DHT22;46158;52.850;6.970;2023-06-22T00:23:53;21.10;70.60
60313;DHT22;46158;52.850;6.970;2023-06-22T00:26:19;21.10;70.60
60313;DHT22;46158;52.850;6.970;2023-06-22T00:28:45;21.10;70.50
60313;DHT22;46158;52.850;6.970;2023-06-22T00:31:10;21.10;70.50
60313;DHT22;46158;52.850;6.970;2023-06-22T00:33:36;21.10;70.50
60313;DHT22;46158;52.850;6.970;2023-06-22T00:36:02;21.10;70.60
60313;DHT22;46158;52.850;6.970;2023-06-22T00:38:28;21.10;70.60
60313;DHT22;46158;52.850;6.970;2023-06-22T00:40:54;21.10;70.60
60313;DHT22;46158;52.850;6.970;2023-06-22T00:43:20;21.10;70.60
60313;DHT22;46158;52.850;6.970;2023-06-22T00:45:46;21.00;70.50
60313;DHT22;46158;52.850;6.970;2023-06-22T00:48:12;21.10;70.60
60313;DHT22;46158;52.850;6.970;2023-06-22T00:50:38;21.00;70.60
60313;DHT22;46158;52.850;6.970;2023-06-22T00:53:06;21.00;70.60
60313;DHT22;46158;52.850;6.970;2023-06-22T00:55:37;21.00;70.50
60313;DHT22;46158;52.850;6.970;2023-06-22T00:58:05;21.00;70.60
60313;DHT22;46158;52.850;6.970;2023-06-22T01:00:33;21.00;70.70
60313;DHT22;46158;52.850;6.970;2023-06-22T01:02:59;21.00;70.60
60313;DHT22;46158;52.850;6.970;2023-06-22T01:05:25;21.00;70.70
60313;DHT22;46158;52.850;6.970;2023-06-22T01:10:47;21.00;70.60
60313;DHT22;46158;52.850;6.970;2023-06-22T01:15:55;21.00;70.70
60313;DHT22;46158;52.850;6.970;2023-06-22T01:18:22;21.00;70.70
60313;DHT22;46158;52.850;6.970;2023-06-22T01:20:54;21.00;70.80
60313;DHT22;46158;52.850;6.970;2023-06-22T01:26:54;21.00;70.80
60313;DHT22;46158;52.850;6.970;2023-06-22T01:28:50;21.00;70.80
60313;DHT22;46158;52.850;6.970;2023-06-22T01:31:20;21.00;70.80
60313;DHT22;46158;52.850;6.970;2023-06-22T01:33:51;21.00;70.80
60313;DHT22;46158;52.850;6.970;2023-06-22T01:36:19;21.00;70.80
60313;DHT22;46158;52.850;6.970;2023-06-22T01:38:45;21.00;70.80
60313;DHT22;46158;52.850;6.970;2023-06-22T01:41:12;21.00;70.90
60313;DHT22;46158;52.850;6.970;2023-06-22T01:43:39;21.00;70.90
60313;DHT22;46158;52.850;6.970;2023-06-22T01:46:05;21.00;70.90
60313;DHT22;46158;52.850;6.970;2023-06-22T01:48:31;20.90;70.90
60313;DHT22;46158;52.850;6.970;2023-06-22T01:50:57;21.00;71.60
60313;DHT22;46158;52.850;6.970;2023-06-22T01:53:24;20.90;70.90
60313;DHT22;46158;52.850;6.970;2023-06-22T01:55:50;20.90;70.90
60313;DHT22;46158;52.850;6.970;2023-06-22T01:58:15;20.90;71.00
60313;DHT22;46158;52.850;6.970;2023-06-22T02:00:47;20.90;71.00
60313;DHT22;46158;52.850;6.970;2023-06-22T02:03:30;20.90;71.00
60313;DHT22;46158;52.850;6.970;2023-06-22T02:06:01;20.90;70.90
60313;DHT22;46158;52.850;6.970;2023-06-22T02:08:33;20.90;71.00
60313;DHT22;46158;52.850;6.970;2023-06-22T02:11:00;20.90;71.00
60313;DHT22;46158;52.850;6.970;2023-06-22T02:13:27;20.90;71.00
60313;DHT22;46158;52.850;6.970;2023-06-22T02:15:53;20.90;71.00
60313;DHT22;46158;52.850;6.970;2023-06-22T02:18:19;20.90;71.00
60313;DHT22;46158;52.850;6.970;2023-06-22T02:20:46;20.90;71.00
60313;DHT22;46158;52.850;6.970;2023-06-22T02:23:11;20.90;71.00
60313;DHT22;46158;52.850;6.970;2023-06-22T02:25:37;20.90;71.00
60313;DHT22;46158;52.850;6.970;2023-06-22T02:28:04;20.90;71.10
60313;DHT22;46158;52.850;6.970;2023-06-22T02:30:29;20.90;71.10
60313;DHT22;46158;52.850;6.970;2023-06-22T02:32:55;20.90;71.10
60313;DHT22;46158;52.850;6.970;2023-06-22T02:35:30;20.90;71.10
60313;DHT22;46158;52.850;6.970;2023-06-22T02:38:03;20.90;71.00
60313;DHT22;46158;52.850;6.970;2023-06-22T02:40:29;20.90;71.10
60313;DHT22;46158;52.850;6.970;2023-06-22T02:42:55;20.80;71.00
60313;DHT22;46158;52.850;6.970;2023-06-22T02:45:23;20.80;71.00
60313;DHT22;46158;52.850;6.970;2023-06-22T02:47:49;20.80;71.10
60313;DHT22;46158;52.850;6.970;2023-06-22T02:50:15;20.80;71.00
60313;DHT22;46158;52.850;6.970;2023-06-22T02:52:41;20.80;71.10
60313;DHT22;46158;52.850;6.970;2023-06-22T02:55:07;20.80;71.00
60313;DHT22;46158;52.850;6.970;2023-06-22T02:57:33;20.80;71.10
60313;DHT22;46158;52.850;6.970;2023-06-22T02:59:59;20.80;71.10
60313;DHT22;46158;52.850;6.970;2023-06-22T03:02:25;20.80;71.10
60313;DHT22;46158;52.850;6.970;2023-06-22T03:04:52;20.80;71.10
60313;DHT22;46158;52.850;6.970;2023-06-22T03:07:19;20.80;71.10
60313;DHT22;46158;52.850;6.970;2023-06-22T03:09:45;20.80;71.20
60313;DHT22;46158;52.850;6.970;2023-06-22T03:12:11;20.80;71.20
60313;DHT22;46158;52.850;6.970;2023-06-22T03:14:37;20.80;71.20
60313;DHT22;46158;52.850;6.970;2023-06-22T03:17:04;20.80;71.20
60313;DHT22;46158;52.850;6.970;2023-06-22T03:19:30;20.80;71.20
60313;DHT22;46158;52.850;6.970;2023-06-22T03:22:00;20.80;71.20
60313;DHT22;46158;52.850;6.970;2023-06-22T03:24:26;20.80;71.20
60313;DHT22;46158;52.850;6.970;2023-06-22T03:26:54;20.80;71.20
60313;DHT22;46158;52.850;6.970;2023-06-22T03:29:20;20.80;71.20
60313;DHT22;46158;52.850;6.970;2023-06-22T03:31:46;20.80;71.20
60313;DHT22;46158;52.850;6.970;2023-06-22T03:34:11;20.80;71.30
60313;DHT22;46158;52.850;6.970;2023-06-22T03:36:37;20.80;71.30
60313;DHT22;46158;52.850;6.970;2023-06-22T03:39:03;20.70;71.20
60313;DHT22;46158;52.850;6.970;2023-06-22T03:41:28;20.80;71.30
60313;DHT22;46158;52.850;6.970;2023-06-22T03:43:54;20.70;71.30
60313;DHT22;46158;52.850;6.970;2023-06-22T03:46:20;20.70;71.30
60313;DHT22;46158;52.850;6.970;2023-06-22T03:48:45;20.70;71.40
60313;DHT22;46158;52.850;6.970;2023-06-22T03:51:11;20.70;71.40
60313;DHT22;46158;52.850;6.970;2023-06-22T03:53:37;20.70;71.40
60313;DHT22;46158;52.850;6.970;2023-06-22T03:56:03;20.70;71.40
60313;DHT22;46158;52.850;6.970;2023-06-22T03:58:29;20.70;71.40
60313;DHT22;46158;52.850;6.970;2023-06-22T04:00:58;20.70;71.40
60313;DHT22;46158;52.850;6.970;2023-06-22T04:03:25;20.70;71.40
60313;DHT22;46158;52.850;6.970;2023-06-22T04:05:51;20.70;71.40
60313;DHT22;46158;52.850;6.970;2023-06-22T04:08:17;20.70;71.50
60313;DHT22;46158;52.850;6.970;2023-06-22T04:10:43;20.70;71.50
60313;DHT22;46158;52.850;6.970;2023-06-22T04:13:09;20.70;71.50
60313;DHT22;46158;52.850;6.970;2023-06-22T04:15:34;20.70;71.50
60313;DHT22;46158;52.850;6.970;2023-06-22T04:18:00;20.70;71.60
60313;DHT22;46158;52.850;6.970;2023-06-22T04:20:26;20.70;71.60
60313;DHT22;46158;52.850;6.970;2023-06-22T04:22:53;20.60;71.60
60313;DHT22;46158;52.850;6.970;2023-06-22T04:25:19;20.70;71.60
60313;DHT22;46158;52.850;6.970;2023-06-22T04:27:46;20.60;71.60
60313;DHT22;46158;52.850;6.970;2023-06-22T04:30:12;20.70;71.60
60313;DHT22;46158;52.850;6.970;2023-06-22T04:32:40;20.70;71.70
60313;DHT22;46158;52.850;6.970;2023-06-22T04:35:06;20.60;71.60
60313;DHT22;46158;52.850;6.970;2023-06-22T04:37:33;20.60;71.60
60313;DHT22;46158;52.850;6.970;2023-06-22T04:39:59;20.60;71.70
60313;DHT22;46158;52.850;6.970;2023-06-22T04:42:28;20.60;71.70
60313;DHT22;46158;52.850;6.970;2023-06-22T04:45:00;20.60;72.00
60313;DHT22;46158;52.850;6.970;2023-06-22T04:47:26;20.60;72.80
60313;DHT22;46158;52.850;6.970;2023-06-22T04:49:52;20.60;73.30
60313;DHT22;46158;52.850;6.970;2023-06-22T04:52:21;20.60;73.80
60313;DHT22;46158;52.850;6.970;2023-06-22T04:54:47;20.60;74.10
60313;DHT22;46158;52.850;6.970;2023-06-22T04:57:21;20.50;74.30
60313;DHT22;46158;52.850;6.970;2023-06-22T04:59:56;20.50;74.50
60313;DHT22;46158;52.850;6.970;2023-06-22T05:02:21;20.50;74.70
60313;DHT22;46158;52.850;6.970;2023-06-22T05:04:48;20.50;75.00
60313;DHT22;46158;52.850;6.970;2023-06-22T05:07:19;20.50;75.30
60313;DHT22;46158;52.850;6.970;2023-06-22T05:09:44;20.50;75.50
60313;DHT22;46158;52.850;6.970;2023-06-22T05:12:29;20.40;75.60
60313;DHT22;46158;52.850;6.970;2023-06-22T05:14:55;20.50;75.90
60313;DHT22;46158;52.850;6.970;2023-06-22T05:17:21;20.40;76.10
60313;DHT22;46158;52.850;6.970;2023-06-22T05:19:51;20.40;76.40
60313;DHT22;46158;52.850;6.970;2023-06-22T05:22:17;20.40;76.90
60313;DHT22;46158;52.850;6.970;2023-06-22T05:24:43;20.40;76.90
60313;DHT22;46158;52.850;6.970;2023-06-22T05:27:10;20.40;77.20
60313;DHT22;46158;52.850;6.970;2023-06-22T05:29:39;20.40;77.40
60313;DHT22;46158;52.850;6.970;2023-06-22T05:32:06;20.40;77.60
60313;DHT22;46158;52.850;6.970;2023-06-22T05:34:32;20.40;77.80
60313;DHT22;46158;52.850;6.970;2023-06-22T05:36:58;20.40;78.00
60313;DHT22;46158;52.850;6.970;2023-06-22T05:39:26;20.40;78.20
60313;DHT22;46158;52.850;6.970;2023-06-22T05:41:52;20.40;78.00
60313;DHT22;46158;52.850;6.970;2023-06-22T05:44:18;20.40;77.70
60313;DHT22;46158;52.850;6.970;2023-06-22T05:46:45;20.40;77.30
60313;DHT22;46158;52.850;6.970;2023-06-22T05:49:12;20.40;77.00
60313;DHT22;46158;52.850;6.970;2023-06-22T05:51:39;20.40;76.80
60313;DHT22;46158;52.850;6.970;2023-06-22T05:54:05;20.40;76.60
60313;DHT22;46158;52.850;6.970;2023-06-22T05:56:31;20.40;76.30
60313;DHT22;46158;52.850;6.970;2023-06-22T05:58:57;20.40;76.10
60313;DHT22;46158;52.850;6.970;2023-06-22T06:01:22;20.40;75.90
60313;DHT22;46158;52.850;6.970;2023-06-22T06:03:48;20.40;75.80
60313;DHT22;46158;52.850;6.970;2023-06-22T06:06:15;20.40;75.70
60313;DHT22;46158;52.850;6.970;2023-06-22T06:08:41;20.40;75.60
60313;DHT22;46158;52.850;6.970;2023-06-22T06:11:10;20.40;75.50
60313;DHT22;46158;52.850;6.970;2023-06-22T06:13:35;20.40;75.40
60313;DHT22;46158;52.850;6.970;2023-06-22T06:16:01;20.40;75.40
60313;DHT22;46158;52.850;6.970;2023-06-22T06:18:27;20.40;75.30
60313;DHT22;46158;52.850;6.970;2023-06-22T06:20:53;20.40;75.20
60313;DHT22;46158;52.850;6.970;2023-06-22T06:23:19;20.40;75.90
60313;DHT22;46158;52.850;6.970;2023-06-22T06:25:44;20.40;75.10
60313;DHT22;46158;52.850;6.970;2023-06-22T06:28:10;20.40;75.00
60313;DHT22;46158;52.850;6.970;2023-06-22T06:30:36;20.40;75.00
60313;DHT22;46158;52.850;6.970;2023-06-22T06:33:03;20.50;75.00
60313;DHT22;46158;52.850;6.970;2023-06-22T06:35:34;20.40;74.90
60313;DHT22;46158;52.850;6.970;2023-06-22T06:38:00;20.40;74.80
60313;DHT22;46158;52.850;6.970;2023-06-22T06:40:26;20.50;74.90
60313;DHT22;46158;52.850;6.970;2023-06-22T06:42:51;20.50;74.80
60313;DHT22;46158;52.850;6.970;2023-06-22T06:45:21;20.40;74.70
60313;DHT22;46158;52.850;6.970;2023-06-22T06:47:48;20.50;74.70
60313;DHT22;46158;52.850;6.970;2023-06-22T06:50:14;20.50;74.70
60313;DHT22;46158;52.850;6.970;2023-06-22T06:52:40;20.50;74.60
60313;DHT22;46158;52.850;6.970;2023-06-22T06:55:07;20.50;74.60
60313;DHT22;46158;52.850;6.970;2023-06-22T06:57:34;20.50;74.50
60313;DHT22;46158;52.850;6.970;2023-06-22T07:00:00;20.50;74.50
60313;DHT22;46158;52.850;6.970;2023-06-22T07:02:26;20.50;74.40
60313;DHT22;46158;52.850;6.970;2023-06-22T07:04:55;20.50;74.40
60313;DHT22;46158;52.850;6.970;2023-06-22T07:07:21;20.50;74.40
60313;DHT22;46158;52.850;6.970;2023-06-22T07:09:47;20.50;74.30
60313;DHT22;46158;52.850;6.970;2023-06-22T07:12:13;20.50;74.30
60313;DHT22;46158;52.850;6.970;2023-06-22T07:14:38;20.50;74.20
60313;DHT22;46158;52.850;6.970;2023-06-22T07:17:04;20.50;74.20
60313;DHT22;46158;52.850;6.970;2023-06-22T07:19:30;20.50;74.20
60313;DHT22;46158;52.850;6.970;2023-06-22T07:21:57;20.50;74.10
60313;DHT22;46158;52.850;6.970;2023-06-22T07:24:22;20.60;74.10
60313;DHT22;46158;52.850;6.970;2023-06-22T07:26:49;20.50;74.00
60313;DHT22;46158;52.850;6.970;2023-06-22T07:29:18;20.50;74.00
60313;DHT22;46158;52.850;6.970;2023-06-22T07:31:47;20.60;74.00
60313;DHT22;46158;52.850;6.970;2023-06-22T07:34:15;20.60;73.90
60313;DHT22;46158;52.850;6.970;2023-06-22T07:36:44;20.60;73.90
60313;DHT22;46158;52.850;6.970;2023-06-22T07:39:10;20.60;73.80
60313;DHT22;46158;52.850;6.970;2023-06-22T07:41:38;20.60;73.80
60313;DHT22;46158;52.850;6.970;2023-06-22T07:44:06;20.60;73.80
60313;DHT22;46158;52.850;6.970;2023-06-22T07:46:32;20.60;73.80
60313;DHT22;46158;52.850;6.970;2023-06-22T07:48:58;20.60;73.70
60313;DHT22;46158;52.850;6.970;2023-06-22T07:51:25;20.60;73.70
60313;DHT22;46158;52.850;6.970;2023-06-22T07:53:51;20.60;73.70
60313;DHT22;46158;52.850;6.970;2023-06-22T07:56:17;20.60;73.60
60313;DHT22;46158;52.850;6.970;2023-06-22T07:58:46;20.60;73.50
60313;DHT22;46158;52.850;6.970;2023-06-22T08:01:14;20.60;73.50
60313;DHT22;46158;52.850;6.970;2023-06-22T08:03:40;20.60;73.50
60313;DHT22;46158;52.850;6.970;2023-06-22T08:06:07;20.70;73.50
60313;DHT22;46158;52.850;6.970;2023-06-22T08:08:35;20.70;73.50
60313;DHT22;46158;52.850;6.970;2023-06-22T08:11:03;20.70;73.40
60313;DHT22;46158;52.850;6.970;2023-06-22T08:13:29;20.70;73.30
60313;DHT22;46158;52.850;6.970;2023-06-22T08:15:58;20.70;73.30
60313;DHT22;46158;52.850;6.970;2023-06-22T08:18:24;20.70;73.30
60313;DHT22;46158;52.850;6.970;2023-06-22T08:20:49;20.70;73.20
60313;DHT22;46158;52.850;6.970;2023-06-22T08:23:15;20.70;73.20
60313;DHT22;46158;52.850;6.970;2023-06-22T08:25:43;20.70;73.10
60313;DHT22;46158;52.850;6.970;2023-06-22T08:28:12;20.70;73.10
60313;DHT22;46158;52.850;6.970;2023-06-22T08:30:38;20.70;73.00
60313;DHT22;46158;52.850;6.970;2023-06-22T08:33:04;20.70;73.00
60313;DHT22;46158;52.850;6.970;2023-06-22T08:35:30;20.80;73.00
60313;DHT22;46158;52.850;6.970;2023-06-22T08:37:55;20.80;73.00
60313;DHT22;46158;52.850;6.970;2023-06-22T08:40:22;20.80;72.90
60313;DHT22;46158;52.850;6.970;2023-06-22T08:42:49;20.80;72.90
60313;DHT22;46158;52.850;6.970;2023-06-22T08:45:16;20.80;72.90
60313;DHT22;46158;52.850;6.970;2023-06-22T08:47:42;20.80;72.80
60313;DHT22;46158;52.850;6.970;2023-06-22T08:50:09;20.80;72.80
60313;DHT22;46158;52.850;6.970;2023-06-22T08:52:36;20.80;72.70
60313;DHT22;46158;52.850;6.970;2023-06-22T08:55:03;20.80;72.70
60313;DHT22;46158;52.850;6.970;2023-06-22T08:57:30;20.80;72.70
60313;DHT22;46158;52.850;6.970;2023-06-22T09:00:09;20.90;72.60
60313;DHT22;46158;52.850;6.970;2023-06-22T09:02:41;20.90;72.60
60313;DHT22;46158;52.850;6.970;2023-06-22T09:05:07;20.80;72.50
60313;DHT22;46158;52.850;6.970;2023-06-22T09:07:33;20.90;72.50
60313;DHT22;46158;52.850;6.970;2023-06-22T09:10:00;20.90;72.50
60313;DHT22;46158;52.850;6.970;2023-06-22T09:12:26;20.90;72.40
60313;DHT22;46158;52.850;6.970;2023-06-22T09:14:53;20.90;72.40
60313;DHT22;46158;52.850;6.970;2023-06-22T09:17:19;20.90;72.40
60313;DHT22;46158;52.850;6.970;2023-06-22T09:19:44;20.90;72.30
60313;DHT22;46158;52.850;6.970;2023-06-22T09:22:10;21.00;72.30
60313;DHT22;46158;52.850;6.970;2023-06-22T09:24:36;21.00;72.20
60313;DHT22;46158;52.850;6.970;2023-06-22T09:27:02;21.00;72.20
60313;DHT22;46158;52.850;6.970;2023-06-22T09:29:28;21.00;72.20
60313;DHT22;46158;52.850;6.970;2023-06-22T09:31:54;21.00;72.10
60313;DHT22;46158;52.850;6.970;2023-06-22T09:34:20;21.00;72.10
60313;DHT22;46158;52.850;6.970;2023-06-22T09:36:48;21.00;72.00
60313;DHT22;46158;52.850;6.970;2023-06-22T09:39:14;21.00;72.00
60313;DHT22;46158;52.850;6.970;2023-06-22T09:41:40;21.10;72.70
60313;DHT22;46158;52.850;6.970;2023-06-22T09:44:05;21.10;72.00
60313;DHT22;46158;52.850;6.970;2023-06-22T09:46:31;21.10;71.90
60313;DHT22;46158;52.850;6.970;2023-06-22T09:48:57;21.10;71.90
60313;DHT22;46158;52.850;6.970;2023-06-22T09:51:23;21.10;71.80
60313;DHT22;46158;52.850;6.970;2023-06-22T09:53:52;21.10;71.70
60313;DHT22;46158;52.850;6.970;2023-06-22T09:56:22;21.10;71.70
60313;DHT22;46158;52.850;6.970;2023-06-22T09:58:48;21.10;71.60
60313;DHT22;46158;52.850;6.970;2023-06-22T10:01:15;21.10;71.70
60313;DHT22;46158;52.850;6.970;2023-06-22T10:03:41;21.10;71.70
60313;DHT22;46158;52.850;6.970;2023-06-22T10:06:07;21.20;71.60
60313;DHT22;46158;52.850;6.970;2023-06-22T10:08:35;21.10;71.50
60313;DHT22;46158;52.850;6.970;2023-06-22T10:11:03;21.20;71.50
60313;DHT22;46158;52.850;6.970;2023-06-22T10:13:28;21.20;71.50
60313;DHT22;46158;52.850;6.970;2023-06-22T10:15:54;21.20;71.50
60313;DHT22;46158;52.850;6.970;2023-06-22T10:18:20;21.20;71.40
60313;DHT22;46158;52.850;6.970;2023-06-22T10:20:50;21.20;71.30
60313;DHT22;46158;52.850;6.970;2023-06-22T10:23:21;21.30;71.30
60313;DHT22;46158;52.850;6.970;2023-06-22T10:25:47;21.30;72.00
60313;DHT22;46158;52.850;6.970;2023-06-22T10:28:14;21.30;71.20
60313;DHT22;46158;52.850;6.970;2023-06-22T10:30:40;21.30;71.20
60313;DHT22;46158;52.850;6.970;2023-06-22T10:33:09;21.30;71.20
60313;DHT22;46158;52.850;6.970;2023-06-22T10:35:35;21.30;71.10
60313;DHT22;46158;52.850;6.970;2023-06-22T10:38:03;21.30;71.10
60313;DHT22;46158;52.850;6.970;2023-06-22T10:40:29;21.30;71.00
60313;DHT22;46158;52.850;6.970;2023-06-22T10:42:55;21.40;71.10
60313;DHT22;46158;52.850;6.970;2023-06-22T10:45:21;21.40;71.00
60313;DHT22;46158;52.850;6.970;2023-06-22T10:47:46;21.40;71.00
60313;DHT22;46158;52.850;6.970;2023-06-22T10:50:15;21.40;71.00
60313;DHT22;46158;52.850;6.970;2023-06-22T10:52:41;21.40;71.60
60313;DHT22;46158;52.850;6.970;2023-06-22T10:55:08;21.40;70.90
60313;DHT22;46158;52.850;6.970;2023-06-22T10:57:34;21.40;70.80
60313;DHT22;46158;52.850;6.970;2023-06-22T11:00:00;21.40;70.80
60313;DHT22;46158;52.850;6.970;2023-06-22T11:02:26;21.40;70.80
60313;DHT22;46158;52.850;6.970;2023-06-22T11:04:53;21.50;70.80
60313;DHT22;46158;52.850;6.970;2023-06-22T11:07:19;21.40;71.40
60313;DHT22;46158;52.850;6.970;2023-06-22T11:09:45;21.50;70.80
60313;DHT22;46158;52.850;6.970;2023-06-22T11:12:11;21.50;70.70
60313;DHT22;46158;52.850;6.970;2023-06-22T11:14:38;21.50;70.70
60313;DHT22;46158;52.850;6.970;2023-06-22T11:17:04;21.50;70.70
60313;DHT22;46158;52.850;6.970;2023-06-22T11:19:30;21.50;70.60
60313;DHT22;46158;52.850;6.970;2023-06-22T11:21:56;21.50;70.60
60313;DHT22;46158;52.850;6.970;2023-06-22T11:24:22;21.50;70.60
60313;DHT22;46158;52.850;6.970;2023-06-22T11:27:08;21.50;70.60
60313;DHT22;46158;52.850;6.970;2023-06-22T11:29:34;21.60;70.50
60313;DHT22;46158;52.850;6.970;2023-06-22T11:32:00;21.60;70.70
60313;DHT22;46158;52.850;6.970;2023-06-22T11:34:25;21.60;70.70
60313;DHT22;46158;52.850;6.970;2023-06-22T11:36:51;21.60;70.70
60313;DHT22;46158;52.850;6.970;2023-06-22T11:39:34;21.60;70.80
60313;DHT22;46158;52.850;6.970;2023-06-22T11:42:00;21.60;70.80
60313;DHT22;46158;52.850;6.970;2023-06-22T11:44:26;21.60;70.80
60313;DHT22;46158;52.850;6.970;2023-06-22T11:46:51;21.60;70.80
60313;DHT22;46158;52.850;6.970;2023-06-22T11:49:17;21.60;70.80
60313;DHT22;46158;52.850;6.970;2023-06-22T11:51:43;21.60;70.80
60313;DHT22;46158;52.850;6.970;2023-06-22T11:54:08;21.60;70.90
60313;DHT22;46158;52.850;6.970;2023-06-22T11:56:34;21.60;70.90
60313;DHT22;46158;52.850;6.970;2023-06-22T11:59:09;21.60;70.90
60313;DHT22;46158;52.850;6.970;2023-06-22T12:01:41;21.70;70.90
60313;DHT22;46158;52.850;6.970;2023-06-22T12:04:26;21.70;70.20
60313;DHT22;46158;52.850;6.970;2023-06-22T12:06:57;21.70;69.30
60313;DHT22;46158;52.850;6.970;2023-06-22T12:09:27;21.70;68.10
60313;DHT22;46158;52.850;6.970;2023-06-22T12:11:52;21.60;67.40
60313;DHT22;46158;52.850;6.970;2023-06-22T12:14:21;21.60;67.10
60313;DHT22;46158;52.850;6.970;2023-06-22T12:17:00;21.60;66.00
60313;DHT22;46158;52.850;6.970;2023-06-22T12:19:29;21.60;66.60
60313;DHT22;46158;52.850;6.970;2023-06-22T12:22:01;21.50;66.50
60313;DHT22;46158;52.850;6.970;2023-06-22T12:24:26;21.50;66.10
60313;DHT22;46158;52.850;6.970;2023-06-22T12:26:52;21.40;66.70
60313;DHT22;46158;52.850;6.970;2023-06-22T12:29:18;21.40;66.30
60313;DHT22;46158;52.850;6.970;2023-06-22T12:31:45;21.40;66.50
60313;DHT22;46158;52.850;6.970;2023-06-22T12:34:11;21.40;66.30
60313;DHT22;46158;52.850;6.970;2023-06-22T12:36:37;21.40;65.80
60313;DHT22;46158;52.850;6.970;2023-06-22T12:39:03;21.40;66.60
60313;DHT22;46158;52.850;6.970;2023-06-22T12:41:29;21.30;66.30
60313;DHT22;46158;52.850;6.970;2023-06-22T12:43:54;21.30;66.40
60313;DHT22;46158;52.850;6.970;2023-06-22T12:46:20;21.30;67.20
60313;DHT22;46158;52.850;6.970;2023-06-22T12:48:46;21.30;66.60
60313;DHT22;46158;52.850;6.970;2023-06-22T12:51:11;21.30;66.90
60313;DHT22;46158;52.850;6.970;2023-06-22T12:53:37;21.30;67.50
60313;DHT22;46158;52.850;6.970;2023-06-22T12:56:03;21.30;66.70
60313;DHT22;46158;52.850;6.970;2023-06-22T12:58:29;21.30;67.10
60313;DHT22;46158;52.850;6.970;2023-06-22T13:00:58;21.20;67.40
60313;DHT22;46158;52.850;6.970;2023-06-22T13:03:24;21.20;66.90
60313;DHT22;46158;52.850;6.970;2023-06-22T13:05:51;21.20;67.60
60313;DHT22;46158;52.850;6.970;2023-06-22T13:08:17;21.20;67.80
60313;DHT22;46158;52.850;6.970;2023-06-22T13:10:43;21.20;67.30
60313;DHT22;46158;52.850;6.970;2023-06-22T13:13:09;21.20;67.70
60313;DHT22;46158;52.850;6.970;2023-06-22T13:15:35;21.30;68.40
60313;DHT22;46158;52.850;6.970;2023-06-22T13:18:00;21.20;68.20
60313;DHT22;46158;52.850;6.970;2023-06-22T13:20:26;21.30;67.80
60313;DHT22;46158;52.850;6.970;2023-06-22T13:22:53;21.30;68.40
60313;DHT22;46158;52.850;6.970;2023-06-22T13:25:19;21.20;68.90
60313;DHT22;46158;52.850;6.970;2023-06-22T13:27:48;21.30;69.40
60313;DHT22;46158;52.850;6.970;2023-06-22T13:30:14;21.30;68.80
60313;DHT22;46158;52.850;6.970;2023-06-22T13:32:44;21.30;68.00
60313;DHT22;46158;52.850;6.970;2023-06-22T13:35:10;21.30;68.60
60313;DHT22;46158;52.850;6.970;2023-06-22T13:37:37;21.30;69.80
60313;DHT22;46158;52.850;6.970;2023-06-22T13:40:07;21.30;69.40
60313;DHT22;46158;52.850;6.970;2023-06-22T13:42:33;21.30;69.80
60313;DHT22;46158;52.850;6.970;2023-06-22T13:45:00;21.30;68.60
60313;DHT22;46158;52.850;6.970;2023-06-22T13:47:26;21.30;69.10
60313;DHT22;46158;52.850;6.970;2023-06-22T13:49:55;21.30;69.70
60313;DHT22;46158;52.850;6.970;2023-06-22T13:52:21;21.40;70.30
60313;DHT22;46158;52.850;6.970;2023-06-22T13:54:47;21.40;69.40
60313;DHT22;46158;52.850;6.970;2023-06-22T13:57:13;21.40;68.80
60313;DHT22;46158;52.850;6.970;2023-06-22T13:59:42;21.40;69.40
60313;DHT22;46158;52.850;6.970;2023-06-22T14:02:08;21.40;69.80
60313;DHT22;46158;52.850;6.970;2023-06-22T14:04:33;21.40;70.20
60313;DHT22;46158;52.850;6.970;2023-06-22T14:06:59;21.40;69.90
60313;DHT22;46158;52.850;6.970;2023-06-22T14:09:42;21.40;68.70
60313;DHT22;46158;52.850;6.970;2023-06-22T14:12:08;21.40;69.40
60313;DHT22;46158;52.850;6.970;2023-06-22T14:14:34;21.40;69.90
60313;DHT22;46158;52.850;6.970;2023-06-22T14:17:00;21.40;70.40
60313;DHT22;46158;52.850;6.970;2023-06-22T14:19:29;21.40;70.80
60313;DHT22;46158;52.850;6.970;2023-06-22T14:21:55;21.40;69.80
60313;DHT22;46158;52.850;6.970;2023-06-22T14:24:23;21.40;69.20
60313;DHT22;46158;52.850;6.970;2023-06-22T14:26:49;21.40;69.80
60313;DHT22;46158;52.850;6.970;2023-06-22T14:29:18;21.40;70.20
60313;DHT22;46158;52.850;6.970;2023-06-22T14:31:46;21.40;70.40
60313;DHT22;46158;52.850;6.970;2023-06-22T14:34:12;21.50;70.50
60313;DHT22;46158;52.850;6.970;2023-06-22T14:36:38;21.50;69.80
60313;DHT22;46158;52.850;6.970;2023-06-22T14:39:04;21.50;69.20
60313;DHT22;46158;52.850;6.970;2023-06-22T14:41:33;21.40;69.70
60313;DHT22;46158;52.850;6.970;2023-06-22T14:43:58;21.50;70.30
60313;DHT22;46158;52.850;6.970;2023-06-22T14:46:27;21.50;70.70
60313;DHT22;46158;52.850;6.970;2023-06-22T14:48:53;21.50;71.10
60313;DHT22;46158;52.850;6.970;2023-06-22T14:51:19;21.50;68.90
60313;DHT22;46158;52.850;6.970;2023-06-22T14:53:45;21.50;69.30
60313;DHT22;46158;52.850;6.970;2023-06-22T14:56:12;21.40;69.80
60313;DHT22;46158;52.850;6.970;2023-06-22T14:58:43;21.50;70.10
60313;DHT22;46158;52.850;6.970;2023-06-22T15:01:11;21.50;70.00
60313;DHT22;46158;52.850;6.970;2023-06-22T15:03:37;21.50;69.90
60313;DHT22;46158;52.850;6.970;2023-06-22T15:06:03;21.50;69.80
60313;DHT22;46158;52.850;6.970;2023-06-22T15:08:33;21.50;69.80
60313;DHT22;46158;52.850;6.970;2023-06-22T15:10:59;21.50;69.80
60313;DHT22;46158;52.850;6.970;2023-06-22T15:13:27;21.60;69.90
60313;DHT22;46158;52.850;6.970;2023-06-22T15:15:55;21.60;70.00
60313;DHT22;46158;52.850;6.970;2023-06-22T15:18:22;21.60;70.10
60313;DHT22;46158;52.850;6.970;2023-06-22T15:20:47;21.60;70.30
60313;DHT22;46158;52.850;6.970;2023-06-22T15:23:17;21.50;70.30
60313;DHT22;46158;52.850;6.970;2023-06-22T15:25:42;21.60;70.40
60313;DHT22;46158;52.850;6.970;2023-06-22T15:28:10;21.60;70.40
60313;DHT22;46158;52.850;6.970;2023-06-22T15:30:35;21.60;70.50
60313;DHT22;46158;52.850;6.970;2023-06-22T15:33:02;21.60;70.60
60313;DHT22;46158;52.850;6.970;2023-06-22T15:35:28;21.60;70.60
60313;DHT22;46158;52.850;6.970;2023-06-22T15:37:54;21.60;70.70